Yongala, Australia
Current Conditions -  °F | °C
As of 2:00 AM on Monday 24 Nov 2014 (Local Time) from YWHA Reporting Station
Clear Clear  
Wind Chill: 70°   Ceiling: Unl
Heat Index: 70°   Visibility: 6mi
Dew Point: 55°   Wind: 12mph
Humidity: 60%   Direction: 210°SSW
Pressure: 29.71"   Gusts: NA
Location:  33.03°S, 138.75°E
Report Text: YWHA 231600Z AUTO 21010KT 9999 // NCD 21/13 Q1006
Loading
Personal Weather Stations






























Interactive Weather Map New forecast layout! Learn more

10-Day Weather Forecast

Advertisements
Track Severe Weather on mobile